Detroit, Michigan
Traffic Map
Current Weather Conditions
Detroit, Michigan
Broken Clouds
Broken Clouds
50°
Feels Like: 50°
Wind Chill: 50° Ceiling: 8000
Heat Index: 50° Visibility: 15mi
Dew Point: 43° Wind: 21mph
Humidity: 76% Direction: 250° (WSW)
Pressure: 29.52in Gusts: 28mph
Raw Report DataCYQG 240700Z 25018G24KT 15SM BKN080 BKN110 10/06 A2952 RMK AC5AC2 SLP997 DENSITY ALT 700FT
Traffic Incident Summary
Active as of:
Severity:
Category:
InformationThere was an issue retrieving the traffic information for this location. Please try a different location or try again shortly.
Advertisements